Mount Vernon, KY

3:20 PM EST on January 21, 2017 (GMT -0500)
Denny Subdivision | | Change Station

Elev 1181 ft 37.31 °N, 84.39 °W | Updated 13 seconds ago

Overcast
Overcast
61.3 °F
Feels Like 61.3 °F
N
3.1
Wind Variable Wind from ESE
Gusts 6.0 mph

Today
High -- | Low -- °F
--% Chance of Precip.
Yesterday
High -- | Low -- °F
Precip. -- in
Pressure 29.68 in
Visibility 10.0 miles
Clouds Mostly Cloudy 8000 ft
Dew Point 52 °F
Humidity 72%
Rainfall 0.00 in
Snow Depth Not available.
7:47 AM 5:50 PM
Waning Crescent, 32% visible
METAR KLOZ 211953Z AUTO 00000KT 10SM BKN080 16/11 A2969 RMK AO2 SLP049 T01560111
Pressure 29.68 in
Visibility 10.0 miles
Clouds Mostly Cloudy 8000 ft
Dew Point 52 °F
Humidity 72%
Rainfall 0.00 in
Snow Depth Not available.
7:47 AM 5:50 PM
Waning Crescent, 32% visible
METAR KLOZ 211953Z AUTO 00000KT 10SM BKN080 16/11 A2969 RMK AO2 SLP049 T01560111

Get Your Daily Forecast Email!

Thanks for signing up!

Be on the lookout for a verification email in your inbox.

You'll start receiving the daily forecast at 8 AM.

×

10-Day Weather Forecast

Almanac

Astronomy

Jan. 21, 2017 Rise Set
Actual Time
Civil Twilight
Nautical Twilight
Astronomical Twilight
Moon
Length of Visible Light
Length of Day
Tomorrow will be .
, % of the Moon is Illuminated

Today's Extremes

State Highs State Lows

Community

WunderPhotos

Upload Photos

1,962,540 photos uploaded!

WunderBlog® & News

Nearby

Air Quality

  Air Quality AQ Index Pollutant
Not available.

Snow Depth

Station Depth Elevation

Earthquake Activity

City Distance Mag. Time & Date
Minimum magnitude displayed is 2.5.

Coastal Water Temperatures

Place Temperature

Stations

Nearby Weather Stations

Station Location Temp. Windchill Dew Point Humidity Wind Precip. Elev Updated Type
                   

Watches & Warnings

There are currently no watches in effect.